sensor_id;sensor_type;location;lat;lon;timestamp;P1;durP1;ratioP1;P2;durP2;ratioP2
13580;SDS011;6861;46.170;7.222;2022-12-07T00:00:45;8.37;;;4.23;;
13580;SDS011;6861;46.170;7.222;2022-12-07T00:03:11;6.80;;;3.63;;
13580;SDS011;6861;46.170;7.222;2022-12-07T00:05:38;5.23;;;3.50;;
13580;SDS011;6861;46.170;7.222;2022-12-07T00:08:06;6.87;;;3.60;;
13580;SDS011;6861;46.170;7.222;2022-12-07T00:10:33;5.23;;;3.40;;
13580;SDS011;6861;46.170;7.222;2022-12-07T00:13:00;6.03;;;3.53;;
13580;SDS011;6861;46.170;7.222;2022-12-07T00:15:27;5.50;;;3.70;;
13580;SDS011;6861;46.170;7.222;2022-12-07T00:17:54;8.10;;;4.80;;
13580;SDS011;6861;46.170;7.222;2022-12-07T00:20:21;8.97;;;4.70;;
13580;SDS011;6861;46.170;7.222;2022-12-07T00:22:48;10.27;;;6.17;;
13580;SDS011;6861;46.170;7.222;2022-12-07T00:25:16;11.47;;;7.40;;
13580;SDS011;6861;46.170;7.222;2022-12-07T00:27:43;11.87;;;6.17;;
13580;SDS011;6861;46.170;7.222;2022-12-07T00:30:10;10.70;;;6.00;;
13580;SDS011;6861;46.170;7.222;2022-12-07T00:32:37;9.20;;;5.30;;
13580;SDS011;6861;46.170;7.222;2022-12-07T00:35:04;6.33;;;4.50;;
13580;SDS011;6861;46.170;7.222;2022-12-07T00:37:31;6.13;;;4.10;;
13580;SDS011;6861;46.170;7.222;2022-12-07T00:39:58;6.40;;;3.20;;
13580;SDS011;6861;46.170;7.222;2022-12-07T00:42:26;5.80;;;3.57;;
13580;SDS011;6861;46.170;7.222;2022-12-07T00:44:53;9.70;;;5.30;;
13580;SDS011;6861;46.170;7.222;2022-12-07T00:47:20;7.77;;;5.37;;
13580;SDS011;6861;46.170;7.222;2022-12-07T00:49:46;8.50;;;4.77;;
13580;SDS011;6861;46.170;7.222;2022-12-07T00:52:13;7.47;;;5.30;;
13580;SDS011;6861;46.170;7.222;2022-12-07T00:54:40;10.03;;;5.83;;
13580;SDS011;6861;46.170;7.222;2022-12-07T00:57:07;12.17;;;5.73;;
13580;SDS011;6861;46.170;7.222;2022-12-07T00:59:35;10.40;;;6.60;;
13580;SDS011;6861;46.170;7.222;2022-12-07T01:02:02;14.00;;;6.50;;
13580;SDS011;6861;46.170;7.222;2022-12-07T01:04:29;9.23;;;6.10;;
13580;SDS011;6861;46.170;7.222;2022-12-07T01:06:56;15.67;;;8.80;;
13580;SDS011;6861;46.170;7.222;2022-12-07T01:09:23;16.20;;;9.73;;
13580;SDS011;6861;46.170;7.222;2022-12-07T01:11:50;9.23;;;6.33;;
13580;SDS011;6861;46.170;7.222;2022-12-07T01:14:16;9.03;;;4.90;;
13580;SDS011;6861;46.170;7.222;2022-12-07T01:16:45;9.03;;;4.93;;
13580;SDS011;6861;46.170;7.222;2022-12-07T01:19:11;9.57;;;5.70;;
13580;SDS011;6861;46.170;7.222;2022-12-07T01:21:38;9.10;;;5.03;;
13580;SDS011;6861;46.170;7.222;2022-12-07T01:24:06;7.93;;;5.07;;
13580;SDS011;6861;46.170;7.222;2022-12-07T01:26:35;7.23;;;4.70;;
13580;SDS011;6861;46.170;7.222;2022-12-07T01:29:02;7.43;;;4.97;;
13580;SDS011;6861;46.170;7.222;2022-12-07T01:31:30;7.70;;;4.73;;
13580;SDS011;6861;46.170;7.222;2022-12-07T01:33:58;9.00;;;4.57;;
13580;SDS011;6861;46.170;7.222;2022-12-07T01:36:26;6.77;;;4.67;;
13580;SDS011;6861;46.170;7.222;2022-12-07T01:38:55;7.73;;;4.47;;
13580;SDS011;6861;46.170;7.222;2022-12-07T01:41:24;8.43;;;4.70;;
13580;SDS011;6861;46.170;7.222;2022-12-07T01:44:09;6.13;;;4.37;;
13580;SDS011;6861;46.170;7.222;2022-12-07T01:46:39;7.20;;;4.37;;
13580;SDS011;6861;46.170;7.222;2022-12-07T01:49:08;7.30;;;4.53;;
13580;SDS011;6861;46.170;7.222;2022-12-07T01:51:40;7.50;;;4.90;;
13580;SDS011;6861;46.170;7.222;2022-12-07T01:54:09;5.83;;;4.03;;
13580;SDS011;6861;46.170;7.222;2022-12-07T01:56:40;5.37;;;3.80;;
13580;SDS011;6861;46.170;7.222;2022-12-07T01:59:10;4.73;;;3.73;;
13580;SDS011;6861;46.170;7.222;2022-12-07T02:01:37;4.93;;;3.27;;
13580;SDS011;6861;46.170;7.222;2022-12-07T02:04:05;4.43;;;3.30;;
13580;SDS011;6861;46.170;7.222;2022-12-07T02:06:34;7.40;;;3.33;;
13580;SDS011;6861;46.170;7.222;2022-12-07T02:09:03;7.53;;;4.73;;
13580;SDS011;6861;46.170;7.222;2022-12-07T02:11:30;10.50;;;5.83;;
13580;SDS011;6861;46.170;7.222;2022-12-07T02:13:57;10.97;;;5.63;;
13580;SDS011;6861;46.170;7.222;2022-12-07T02:16:26;12.57;;;5.17;;
13580;SDS011;6861;46.170;7.222;2022-12-07T02:19:05;7.37;;;5.00;;
13580;SDS011;6861;46.170;7.222;2022-12-07T02:21:51;7.57;;;4.77;;
13580;SDS011;6861;46.170;7.222;2022-12-07T02:24:25;10.77;;;5.07;;
13580;SDS011;6861;46.170;7.222;2022-12-07T02:27:13;8.40;;;4.00;;
13580;SDS011;6861;46.170;7.222;2022-12-07T02:30:01;6.83;;;4.13;;
13580;SDS011;6861;46.170;7.222;2022-12-07T02:32:35;7.40;;;4.53;;
13580;SDS011;6861;46.170;7.222;2022-12-07T02:35:09;7.63;;;4.20;;
13580;SDS011;6861;46.170;7.222;2022-12-07T02:37:42;5.97;;;4.20;;
13580;SDS011;6861;46.170;7.222;2022-12-07T02:40:17;7.10;;;4.70;;
13580;SDS011;6861;46.170;7.222;2022-12-07T02:42:50;8.50;;;5.03;;
13580;SDS011;6861;46.170;7.222;2022-12-07T02:45:23;8.07;;;4.93;;
13580;SDS011;6861;46.170;7.222;2022-12-07T02:47:55;7.03;;;5.13;;
13580;SDS011;6861;46.170;7.222;2022-12-07T02:50:25;7.53;;;4.93;;
13580;SDS011;6861;46.170;7.222;2022-12-07T02:52:53;11.03;;;5.23;;
13580;SDS011;6861;46.170;7.222;2022-12-07T02:55:20;10.80;;;4.93;;
13580;SDS011;6861;46.170;7.222;2022-12-07T02:58:00;8.50;;;4.93;;
13580;SDS011;6861;46.170;7.222;2022-12-07T03:00:39;8.80;;;4.83;;
13580;SDS011;6861;46.170;7.222;2022-12-07T03:03:13;7.37;;;4.77;;
13580;SDS011;6861;46.170;7.222;2022-12-07T03:05:45;7.67;;;4.47;;
13580;SDS011;6861;46.170;7.222;2022-12-07T03:08:21;6.27;;;4.77;;
13580;SDS011;6861;46.170;7.222;2022-12-07T03:10:56;9.80;;;5.47;;
13580;SDS011;6861;46.170;7.222;2022-12-07T03:13:27;9.93;;;5.57;;
13580;SDS011;6861;46.170;7.222;2022-12-07T03:16:01;7.80;;;4.40;;
13580;SDS011;6861;46.170;7.222;2022-12-07T03:18:32;6.77;;;4.17;;
13580;SDS011;6861;46.170;7.222;2022-12-07T03:21:04;11.23;;;4.53;;
13580;SDS011;6861;46.170;7.222;2022-12-07T03:23:36;9.30;;;4.13;;
13580;SDS011;6861;46.170;7.222;2022-12-07T03:26:06;6.03;;;4.40;;
13580;SDS011;6861;46.170;7.222;2022-12-07T03:28:39;10.37;;;6.30;;
13580;SDS011;6861;46.170;7.222;2022-12-07T03:31:12;13.23;;;7.23;;
13580;SDS011;6861;46.170;7.222;2022-12-07T03:33:44;13.00;;;7.17;;
13580;SDS011;6861;46.170;7.222;2022-12-07T03:36:17;9.83;;;6.13;;
13580;SDS011;6861;46.170;7.222;2022-12-07T03:38:50;13.83;;;5.90;;
13580;SDS011;6861;46.170;7.222;2022-12-07T03:41:23;8.73;;;5.53;;
13580;SDS011;6861;46.170;7.222;2022-12-07T03:43:51;7.90;;;5.23;;
13580;SDS011;6861;46.170;7.222;2022-12-07T03:46:25;9.17;;;5.30;;
13580;SDS011;6861;46.170;7.222;2022-12-07T03:49:00;10.20;;;5.30;;
13580;SDS011;6861;46.170;7.222;2022-12-07T03:51:37;9.13;;;5.97;;
13580;SDS011;6861;46.170;7.222;2022-12-07T03:54:09;11.60;;;8.03;;
13580;SDS011;6861;46.170;7.222;2022-12-07T03:56:40;18.63;;;12.70;;
13580;SDS011;6861;46.170;7.222;2022-12-07T03:59:09;16.27;;;11.57;;
13580;SDS011;6861;46.170;7.222;2022-12-07T04:01:39;8.03;;;5.73;;
13580;SDS011;6861;46.170;7.222;2022-12-07T04:04:08;8.60;;;5.13;;
13580;SDS011;6861;46.170;7.222;2022-12-07T04:06:35;9.07;;;5.23;;
13580;SDS011;6861;46.170;7.222;2022-12-07T04:09:02;11.20;;;5.90;;
13580;SDS011;6861;46.170;7.222;2022-12-07T04:11:29;7.80;;;5.63;;
13580;SDS011;6861;46.170;7.222;2022-12-07T04:13:56;9.23;;;4.97;;
13580;SDS011;6861;46.170;7.222;2022-12-07T04:16:41;9.10;;;4.90;;
13580;SDS011;6861;46.170;7.222;2022-12-07T04:19:08;7.37;;;5.17;;
13580;SDS011;6861;46.170;7.222;2022-12-07T04:21:35;8.43;;;5.00;;
13580;SDS011;6861;46.170;7.222;2022-12-07T04:24:02;8.10;;;5.03;;
13580;SDS011;6861;46.170;7.222;2022-12-07T04:26:30;8.63;;;4.90;;
13580;SDS011;6861;46.170;7.222;2022-12-07T04:28:57;9.27;;;5.20;;
13580;SDS011;6861;46.170;7.222;2022-12-07T04:31:24;8.30;;;4.90;;
13580;SDS011;6861;46.170;7.222;2022-12-07T04:33:52;7.60;;;5.33;;
13580;SDS011;6861;46.170;7.222;2022-12-07T04:36:19;10.70;;;5.13;;
13580;SDS011;6861;46.170;7.222;2022-12-07T04:38:46;6.53;;;4.53;;
13580;SDS011;6861;46.170;7.222;2022-12-07T04:41:13;6.87;;;4.90;;
13580;SDS011;6861;46.170;7.222;2022-12-07T04:43:40;6.83;;;4.80;;
13580;SDS011;6861;46.170;7.222;2022-12-07T04:46:06;6.60;;;3.90;;
13580;SDS011;6861;46.170;7.222;2022-12-07T04:48:33;5.23;;;4.10;;
13580;SDS011;6861;46.170;7.222;2022-12-07T04:51:03;7.23;;;4.23;;
13580;SDS011;6861;46.170;7.222;2022-12-07T04:53:30;7.30;;;4.63;;
13580;SDS011;6861;46.170;7.222;2022-12-07T04:55:57;7.47;;;5.27;;
13580;SDS011;6861;46.170;7.222;2022-12-07T04:58:26;11.20;;;5.83;;
13580;SDS011;6861;46.170;7.222;2022-12-07T05:00:53;10.40;;;5.20;;
13580;SDS011;6861;46.170;7.222;2022-12-07T05:03:21;7.43;;;5.70;;
13580;SDS011;6861;46.170;7.222;2022-12-07T05:05:48;7.20;;;5.20;;
13580;SDS011;6861;46.170;7.222;2022-12-07T05:08:16;7.43;;;5.20;;
13580;SDS011;6861;46.170;7.222;2022-12-07T05:10:43;8.20;;;5.00;;
13580;SDS011;6861;46.170;7.222;2022-12-07T05:13:10;7.23;;;4.93;;
13580;SDS011;6861;46.170;7.222;2022-12-07T05:15:37;7.93;;;5.03;;
13580;SDS011;6861;46.170;7.222;2022-12-07T05:18:04;6.87;;;5.00;;
13580;SDS011;6861;46.170;7.222;2022-12-07T05:20:31;7.80;;;4.73;;
13580;SDS011;6861;46.170;7.222;2022-12-07T05:22:58;8.20;;;4.90;;
13580;SDS011;6861;46.170;7.222;2022-12-07T05:25:26;8.43;;;4.93;;
13580;SDS011;6861;46.170;7.222;2022-12-07T05:27:54;7.33;;;4.70;;
13580;SDS011;6861;46.170;7.222;2022-12-07T05:30:21;9.97;;;4.90;;
13580;SDS011;6861;46.170;7.222;2022-12-07T05:32:48;10.93;;;5.43;;
13580;SDS011;6861;46.170;7.222;2022-12-07T05:35:15;9.23;;;5.43;;
13580;SDS011;6861;46.170;7.222;2022-12-07T05:37:42;11.23;;;5.60;;
13580;SDS011;6861;46.170;7.222;2022-12-07T05:40:09;8.93;;;5.50;;
13580;SDS011;6861;46.170;7.222;2022-12-07T05:42:38;7.53;;;5.20;;
13580;SDS011;6861;46.170;7.222;2022-12-07T05:45:05;7.37;;;4.90;;
13580;SDS011;6861;46.170;7.222;2022-12-07T05:47:33;8.63;;;5.40;;
13580;SDS011;6861;46.170;7.222;2022-12-07T05:50:00;9.83;;;5.43;;
13580;SDS011;6861;46.170;7.222;2022-12-07T05:52:27;9.07;;;5.30;;
13580;SDS011;6861;46.170;7.222;2022-12-07T05:54:54;7.57;;;4.83;;
13580;SDS011;6861;46.170;7.222;2022-12-07T05:57:20;8.47;;;4.47;;
13580;SDS011;6861;46.170;7.222;2022-12-07T05:59:49;11.20;;;4.97;;
13580;SDS011;6861;46.170;7.222;2022-12-07T06:02:15;7.27;;;4.83;;
13580;SDS011;6861;46.170;7.222;2022-12-07T06:04:43;7.50;;;4.87;;
13580;SDS011;6861;46.170;7.222;2022-12-07T06:07:12;9.17;;;5.07;;
13580;SDS011;6861;46.170;7.222;2022-12-07T06:09:40;9.10;;;5.43;;
13580;SDS011;6861;46.170;7.222;2022-12-07T06:12:08;8.50;;;4.90;;
13580;SDS011;6861;46.170;7.222;2022-12-07T06:14:54;8.63;;;5.07;;
13580;SDS011;6861;46.170;7.222;2022-12-07T06:17:21;10.30;;;5.10;;
13580;SDS011;6861;46.170;7.222;2022-12-07T06:19:48;11.67;;;6.10;;
13580;SDS011;6861;46.170;7.222;2022-12-07T06:22:15;8.47;;;4.90;;
13580;SDS011;6861;46.170;7.222;2022-12-07T06:24:43;7.20;;;4.90;;
13580;SDS011;6861;46.170;7.222;2022-12-07T06:27:10;7.13;;;4.90;;
13580;SDS011;6861;46.170;7.222;2022-12-07T06:29:37;6.87;;;4.33;;
13580;SDS011;6861;46.170;7.222;2022-12-07T06:32:05;7.53;;;5.13;;
13580;SDS011;6861;46.170;7.222;2022-12-07T06:34:32;9.63;;;4.97;;
13580;SDS011;6861;46.170;7.222;2022-12-07T06:36:59;10.93;;;5.60;;
13580;SDS011;6861;46.170;7.222;2022-12-07T06:39:27;9.10;;;5.50;;
13580;SDS011;6861;46.170;7.222;2022-12-07T06:41:55;8.03;;;4.97;;
13580;SDS011;6861;46.170;7.222;2022-12-07T06:44:22;8.07;;;5.50;;
13580;SDS011;6861;46.170;7.222;2022-12-07T06:46:50;8.67;;;5.17;;
13580;SDS011;6861;46.170;7.222;2022-12-07T06:49:19;10.57;;;5.33;;
13580;SDS011;6861;46.170;7.222;2022-12-07T06:51:46;9.57;;;5.43;;
13580;SDS011;6861;46.170;7.222;2022-12-07T06:54:13;9.20;;;5.20;;
13580;SDS011;6861;46.170;7.222;2022-12-07T06:56:41;8.97;;;5.13;;
13580;SDS011;6861;46.170;7.222;2022-12-07T06:59:08;10.60;;;4.70;;
13580;SDS011;6861;46.170;7.222;2022-12-07T07:01:35;8.60;;;4.70;;
13580;SDS011;6861;46.170;7.222;2022-12-07T07:04:02;8.47;;;4.90;;
13580;SDS011;6861;46.170;7.222;2022-12-07T07:06:31;7.60;;;4.43;;
13580;SDS011;6861;46.170;7.222;2022-12-07T07:08:58;6.97;;;4.63;;
13580;SDS011;6861;46.170;7.222;2022-12-07T07:11:25;7.90;;;4.93;;
13580;SDS011;6861;46.170;7.222;2022-12-07T07:13:52;5.60;;;4.67;;
13580;SDS011;6861;46.170;7.222;2022-12-07T07:16:22;8.60;;;6.00;;
13580;SDS011;6861;46.170;7.222;2022-12-07T07:18:49;11.00;;;5.93;;
13580;SDS011;6861;46.170;7.222;2022-12-07T07:21:15;11.17;;;5.70;;
13580;SDS011;6861;46.170;7.222;2022-12-07T07:23:44;10.00;;;5.47;;
13580;SDS011;6861;46.170;7.222;2022-12-07T07:26:10;14.27;;;6.57;;
13580;SDS011;6861;46.170;7.222;2022-12-07T07:28:38;9.27;;;6.10;;
13580;SDS011;6861;46.170;7.222;2022-12-07T07:31:04;15.63;;;6.70;;
13580;SDS011;6861;46.170;7.222;2022-12-07T07:33:31;12.57;;;6.87;;
13580;SDS011;6861;46.170;7.222;2022-12-07T07:35:58;18.67;;;9.33;;
13580;SDS011;6861;46.170;7.222;2022-12-07T07:38:25;23.87;;;12.07;;
13580;SDS011;6861;46.170;7.222;2022-12-07T07:40:53;33.10;;;14.37;;
13580;SDS011;6861;46.170;7.222;2022-12-07T07:43:20;86.23;;;34.77;;
13580;SDS011;6861;46.170;7.222;2022-12-07T07:45:47;103.13;;;45.37;;
13580;SDS011;6861;46.170;7.222;2022-12-07T07:48:14;49.37;;;26.23;;
13580;SDS011;6861;46.170;7.222;2022-12-07T07:50:41;23.27;;;13.30;;
13580;SDS011;6861;46.170;7.222;2022-12-07T07:53:08;25.80;;;15.03;;
13580;SDS011;6861;46.170;7.222;2022-12-07T07:55:35;37.90;;;19.33;;
13580;SDS011;6861;46.170;7.222;2022-12-07T07:58:03;26.00;;;14.90;;
13580;SDS011;6861;46.170;7.222;2022-12-07T08:00:30;11.77;;;5.47;;
13580;SDS011;6861;46.170;7.222;2022-12-07T08:02:57;13.70;;;6.40;;
13580;SDS011;6861;46.170;7.222;2022-12-07T08:05:24;9.83;;;5.80;;
13580;SDS011;6861;46.170;7.222;2022-12-07T08:07:51;7.40;;;5.53;;
13580;SDS011;6861;46.170;7.222;2022-12-07T08:10:18;10.80;;;6.50;;
13580;SDS011;6861;46.170;7.222;2022-12-07T08:12:45;7.10;;;4.80;;
13580;SDS011;6861;46.170;7.222;2022-12-07T08:15:30;15.03;;;11.00;;
13580;SDS011;6861;46.170;7.222;2022-12-07T08:17:57;21.90;;;12.43;;
13580;SDS011;6861;46.170;7.222;2022-12-07T08:20:24;18.70;;;9.00;;
13580;SDS011;6861;46.170;7.222;2022-12-07T08:22:52;14.30;;;6.80;;
13580;SDS011;6861;46.170;7.222;2022-12-07T08:25:19;25.07;;;8.47;;
13580;SDS011;6861;46.170;7.222;2022-12-07T08:27:46;13.80;;;9.27;;
13580;SDS011;6861;46.170;7.222;2022-12-07T08:30:12;17.60;;;8.63;;
13580;SDS011;6861;46.170;7.222;2022-12-07T08:32:41;16.07;;;8.20;;
13580;SDS011;6861;46.170;7.222;2022-12-07T08:35:08;13.23;;;7.90;;
13580;SDS011;6861;46.170;7.222;2022-12-07T08:37:35;15.13;;;8.60;;
13580;SDS011;6861;46.170;7.222;2022-12-07T08:40:03;10.40;;;6.70;;
13580;SDS011;6861;46.170;7.222;2022-12-07T08:42:31;10.20;;;6.77;;
13580;SDS011;6861;46.170;7.222;2022-12-07T08:45:05;8.07;;;5.30;;
13580;SDS011;6861;46.170;7.222;2022-12-07T08:47:33;12.90;;;7.83;;
13580;SDS011;6861;46.170;7.222;2022-12-07T08:50:02;21.73;;;11.03;;
13580;SDS011;6861;46.170;7.222;2022-12-07T08:52:30;13.67;;;7.63;;
13580;SDS011;6861;46.170;7.222;2022-12-07T08:54:57;10.77;;;6.13;;
13580;SDS011;6861;46.170;7.222;2022-12-07T08:57:26;15.60;;;8.63;;
13580;SDS011;6861;46.170;7.222;2022-12-07T08:59:54;15.97;;;9.37;;
13580;SDS011;6861;46.170;7.222;2022-12-07T09:02:21;50.53;;;20.83;;
13580;SDS011;6861;46.170;7.222;2022-12-07T09:04:48;14.97;;;7.23;;
13580;SDS011;6861;46.170;7.222;2022-12-07T09:07:16;10.83;;;7.00;;
13580;SDS011;6861;46.170;7.222;2022-12-07T09:09:43;12.67;;;8.30;;
13580;SDS011;6861;46.170;7.222;2022-12-07T09:12:10;9.40;;;6.57;;
13580;SDS011;6861;46.170;7.222;2022-12-07T09:14:37;9.60;;;6.17;;
13580;SDS011;6861;46.170;7.222;2022-12-07T09:17:07;8.77;;;5.07;;
13580;SDS011;6861;46.170;7.222;2022-12-07T09:19:35;6.87;;;4.60;;
13580;SDS011;6861;46.170;7.222;2022-12-07T09:22:02;5.70;;;4.67;;
13580;SDS011;6861;46.170;7.222;2022-12-07T09:24:32;7.60;;;4.80;;
13580;SDS011;6861;46.170;7.222;2022-12-07T09:26:59;9.43;;;5.10;;
13580;SDS011;6861;46.170;7.222;2022-12-07T09:29:26;9.07;;;5.10;;
13580;SDS011;6861;46.170;7.222;2022-12-07T09:31:53;11.73;;;6.83;;
13580;SDS011;6861;46.170;7.222;2022-12-07T09:34:20;19.20;;;6.90;;
13580;SDS011;6861;46.170;7.222;2022-12-07T09:36:46;17.70;;;8.33;;
13580;SDS011;6861;46.170;7.222;2022-12-07T09:39:13;19.53;;;9.83;;
13580;SDS011;6861;46.170;7.222;2022-12-07T09:41:42;21.67;;;9.23;;
13580;SDS011;6861;46.170;7.222;2022-12-07T09:44:11;16.43;;;10.10;;
13580;SDS011;6861;46.170;7.222;2022-12-07T09:46:41;19.90;;;13.80;;
13580;SDS011;6861;46.170;7.222;2022-12-07T09:49:10;28.57;;;15.97;;
13580;SDS011;6861;46.170;7.222;2022-12-07T09:51:40;15.60;;;9.57;;
13580;SDS011;6861;46.170;7.222;2022-12-07T09:54:08;12.90;;;8.77;;
13580;SDS011;6861;46.170;7.222;2022-12-07T09:56:39;23.93;;;12.97;;
13580;SDS011;6861;46.170;7.222;2022-12-07T09:59:12;24.20;;;14.40;;
13580;SDS011;6861;46.170;7.222;2022-12-07T10:01:41;21.30;;;13.37;;
13580;SDS011;6861;46.170;7.222;2022-12-07T10:04:10;22.50;;;12.87;;
13580;SDS011;6861;46.170;7.222;2022-12-07T10:06:40;21.27;;;11.97;;
13580;SDS011;6861;46.170;7.222;2022-12-07T10:09:09;17.33;;;9.63;;
13580;SDS011;6861;46.170;7.222;2022-12-07T10:14:26;15.40;;;9.80;;
13580;SDS011;6861;46.170;7.222;2022-12-07T10:16:54;13.83;;;7.93;;
13580;SDS011;6861;46.170;7.222;2022-12-07T10:19:23;12.57;;;7.67;;
13580;SDS011;6861;46.170;7.222;2022-12-07T10:22:04;15.20;;;9.37;;
13580;SDS011;6861;46.170;7.222;2022-12-07T10:24:36;14.63;;;8.77;;
13580;SDS011;6861;46.170;7.222;2022-12-07T10:27:04;23.50;;;10.90;;
13580;SDS011;6861;46.170;7.222;2022-12-07T10:29:47;19.37;;;11.03;;
13580;SDS011;6861;46.170;7.222;2022-12-07T10:32:30;19.43;;;11.80;;
13580;SDS011;6861;46.170;7.222;2022-12-07T10:35:21;17.73;;;9.60;;
13580;SDS011;6861;46.170;7.222;2022-12-07T10:37:51;16.73;;;9.00;;
13580;SDS011;6861;46.170;7.222;2022-12-07T10:40:24;16.10;;;7.83;;
13580;SDS011;6861;46.170;7.222;2022-12-07T10:43:00;14.97;;;7.57;;
13580;SDS011;6861;46.170;7.222;2022-12-07T10:45:30;9.63;;;6.10;;
13580;SDS011;6861;46.170;7.222;2022-12-07T10:47:59;11.20;;;6.43;;
13580;SDS011;6861;46.170;7.222;2022-12-07T10:50:43;11.30;;;6.23;;
13580;SDS011;6861;46.170;7.222;2022-12-07T10:53:40;9.80;;;5.80;;
13580;SDS011;6861;46.170;7.222;2022-12-07T10:56:24;8.13;;;5.30;;
13580;SDS011;6861;46.170;7.222;2022-12-07T10:59:04;12.33;;;8.07;;
13580;SDS011;6861;46.170;7.222;2022-12-07T11:01:48;8.77;;;5.70;;
13580;SDS011;6861;46.170;7.222;2022-12-07T11:04:24;7.33;;;5.40;;
13580;SDS011;6861;46.170;7.222;2022-12-07T11:07:00;8.70;;;4.63;;
13580;SDS011;6861;46.170;7.222;2022-12-07T11:09:40;8.00;;;5.63;;
13580;SDS011;6861;46.170;7.222;2022-12-07T11:12:20;9.70;;;6.03;;
13580;SDS011;6861;46.170;7.222;2022-12-07T11:14:56;7.47;;;5.77;;
13580;SDS011;6861;46.170;7.222;2022-12-07T11:17:32;8.60;;;6.00;;
13580;SDS011;6861;46.170;7.222;2022-12-07T11:20:12;6.93;;;5.20;;
13580;SDS011;6861;46.170;7.222;2022-12-07T11:22:51;9.27;;;5.70;;
13580;SDS011;6861;46.170;7.222;2022-12-07T11:25:27;8.87;;;5.83;;
13580;SDS011;6861;46.170;7.222;2022-12-07T11:28:03;8.17;;;6.20;;
13580;SDS011;6861;46.170;7.222;2022-12-07T11:30:42;7.77;;;5.90;;
13580;SDS011;6861;46.170;7.222;2022-12-07T11:33:20;8.13;;;5.50;;
13580;SDS011;6861;46.170;7.222;2022-12-07T11:35:56;7.10;;;5.40;;
13580;SDS011;6861;46.170;7.222;2022-12-07T11:38:37;8.73;;;5.83;;
13580;SDS011;6861;46.170;7.222;2022-12-07T11:41:09;9.23;;;6.10;;
13580;SDS011;6861;46.170;7.222;2022-12-07T11:43:42;8.90;;;6.37;;
13580;SDS011;6861;46.170;7.222;2022-12-07T11:46:18;9.17;;;5.20;;
13580;SDS011;6861;46.170;7.222;2022-12-07T11:48:52;7.67;;;5.37;;
13580;SDS011;6861;46.170;7.222;2022-12-07T11:51:24;7.93;;;4.90;;
13580;SDS011;6861;46.170;7.222;2022-12-07T11:53:53;9.07;;;5.47;;
13580;SDS011;6861;46.170;7.222;2022-12-07T11:56:25;9.70;;;5.67;;
13580;SDS011;6861;46.170;7.222;2022-12-07T11:58:54;8.33;;;5.47;;
13580;SDS011;6861;46.170;7.222;2022-12-07T12:01:26;9.43;;;5.60;;
13580;SDS011;6861;46.170;7.222;2022-12-07T12:04:06;7.07;;;4.63;;
13580;SDS011;6861;46.170;7.222;2022-12-07T12:06:40;6.43;;;4.73;;
13580;SDS011;6861;46.170;7.222;2022-12-07T12:09:10;6.43;;;4.87;;
13580;SDS011;6861;46.170;7.222;2022-12-07T12:11:46;9.47;;;5.33;;
13580;SDS011;6861;46.170;7.222;2022-12-07T12:14:35;8.43;;;5.77;;
13580;SDS011;6861;46.170;7.222;2022-12-07T12:17:19;7.00;;;5.20;;
13580;SDS011;6861;46.170;7.222;2022-12-07T12:20:01;10.17;;;6.23;;
13580;SDS011;6861;46.170;7.222;2022-12-07T12:22:34;8.47;;;5.97;;
13580;SDS011;6861;46.170;7.222;2022-12-07T12:25:04;8.80;;;6.47;;
13580;SDS011;6861;46.170;7.222;2022-12-07T12:27:33;9.40;;;6.03;;
13580;SDS011;6861;46.170;7.222;2022-12-07T12:30:04;10.10;;;6.77;;
13580;SDS011;6861;46.170;7.222;2022-12-07T12:32:36;10.53;;;7.10;;
13580;SDS011;6861;46.170;7.222;2022-12-07T12:35:22;10.33;;;6.90;;
13580;SDS011;6861;46.170;7.222;2022-12-07T12:37:56;11.23;;;7.07;;
13580;SDS011;6861;46.170;7.222;2022-12-07T12:40:53;10.67;;;6.83;;
13580;SDS011;6861;46.170;7.222;2022-12-07T12:43:39;10.97;;;6.93;;
13580;SDS011;6861;46.170;7.222;2022-12-07T12:55:18;12.13;;;7.37;;
13580;SDS011;6861;46.170;7.222;2022-12-07T12:57:48;15.52;;;8.43;;
13580;SDS011;6861;46.170;7.222;2022-12-07T13:03:54;11.93;;;8.00;;
13580;SDS011;6861;46.170;7.222;2022-12-07T13:06:32;81.37;;;28.30;;
13580;SDS011;6861;46.170;7.222;2022-12-07T13:09:03;12.87;;;8.93;;
13580;SDS011;6861;46.170;7.222;2022-12-07T13:11:32;12.20;;;8.93;;
13580;SDS011;6861;46.170;7.222;2022-12-07T13:17:07;16.00;;;9.60;;
13580;SDS011;6861;46.170;7.222;2022-12-07T13:22:44;10.68;;;7.60;;
13580;SDS011;6861;46.170;7.222;2022-12-07T13:25:18;11.27;;;7.10;;
13580;SDS011;6861;46.170;7.222;2022-12-07T13:27:50;10.05;;;8.07;;
13580;SDS011;6861;46.170;7.222;2022-12-07T13:30:22;16.30;;;8.63;;
13580;SDS011;6861;46.170;7.222;2022-12-07T13:32:52;10.93;;;7.47;;
13580;SDS011;6861;46.170;7.222;2022-12-07T13:35:32;10.47;;;7.60;;
13580;SDS011;6861;46.170;7.222;2022-12-07T13:38:03;12.10;;;8.05;;
13580;SDS011;6861;46.170;7.222;2022-12-07T13:40:41;11.10;;;7.65;;
13580;SDS011;6861;46.170;7.222;2022-12-07T13:43:12;9.85;;;7.78;;
13580;SDS011;6861;46.170;7.222;2022-12-07T13:45:41;10.83;;;7.43;;
13580;SDS011;6861;46.170;7.222;2022-12-07T13:48:15;9.07;;;6.77;;
13580;SDS011;6861;46.170;7.222;2022-12-07T13:50:56;12.25;;;6.75;;
13580;SDS011;6861;46.170;7.222;2022-12-07T13:53:24;13.55;;;7.47;;
13580;SDS011;6861;46.170;7.222;2022-12-07T13:55:53;10.27;;;7.25;;
13580;SDS011;6861;46.170;7.222;2022-12-07T13:58:20;10.80;;;7.05;;
13580;SDS011;6861;46.170;7.222;2022-12-07T14:00:48;11.15;;;7.22;;
13580;SDS011;6861;46.170;7.222;2022-12-07T14:03:29;10.20;;;7.30;;
13580;SDS011;6861;46.170;7.222;2022-12-07T14:06:06;10.83;;;7.50;;
13580;SDS011;6861;46.170;7.222;2022-12-07T14:08:41;9.87;;;6.87;;
13580;SDS011;6861;46.170;7.222;2022-12-07T14:11:09;10.87;;;8.07;;
13580;SDS011;6861;46.170;7.222;2022-12-07T14:13:44;10.40;;;7.40;;
13580;SDS011;6861;46.170;7.222;2022-12-07T14:16:18;12.43;;;7.93;;
13580;SDS011;6861;46.170;7.222;2022-12-07T14:18:51;11.30;;;7.57;;
13580;SDS011;6861;46.170;7.222;2022-12-07T14:21:20;13.65;;;8.20;;
13580;SDS011;6861;46.170;7.222;2022-12-07T14:24:02;9.63;;;7.28;;
13580;SDS011;6861;46.170;7.222;2022-12-07T14:26:34;10.90;;;7.88;;
13580;SDS011;6861;46.170;7.222;2022-12-07T14:31:57;9.35;;;6.80;;
13580;SDS011;6861;46.170;7.222;2022-12-07T14:34:28;9.68;;;7.50;;
13580;SDS011;6861;46.170;7.222;2022-12-07T14:36:56;10.15;;;7.50;;
13580;SDS011;6861;46.170;7.222;2022-12-07T14:39:23;11.93;;;7.80;;
13580;SDS011;6861;46.170;7.222;2022-12-07T14:41:49;11.75;;;7.38;;
13580;SDS011;6861;46.170;7.222;2022-12-07T14:44:17;10.57;;;7.90;;
13580;SDS011;6861;46.170;7.222;2022-12-07T14:46:45;12.23;;;7.38;;
13580;SDS011;6861;46.170;7.222;2022-12-07T14:49:12;12.27;;;7.03;;
13580;SDS011;6861;46.170;7.222;2022-12-07T14:51:39;10.18;;;7.32;;
13580;SDS011;6861;46.170;7.222;2022-12-07T14:54:09;10.90;;;7.63;;
13580;SDS011;6861;46.170;7.222;2022-12-07T14:56:40;14.30;;;9.07;;
13580;SDS011;6861;46.170;7.222;2022-12-07T14:59:08;11.33;;;7.83;;
13580;SDS011;6861;46.170;7.222;2022-12-07T15:01:36;10.57;;;7.60;;
13580;SDS011;6861;46.170;7.222;2022-12-07T15:04:03;11.50;;;8.07;;
13580;SDS011;6861;46.170;7.222;2022-12-07T15:06:30;11.35;;;8.13;;
13580;SDS011;6861;46.170;7.222;2022-12-07T15:08:57;11.38;;;7.78;;
13580;SDS011;6861;46.170;7.222;2022-12-07T15:11:25;10.40;;;7.97;;
13580;SDS011;6861;46.170;7.222;2022-12-07T15:13:52;17.83;;;8.23;;
13580;SDS011;6861;46.170;7.222;2022-12-07T15:16:36;10.48;;;7.80;;
13580;SDS011;6861;46.170;7.222;2022-12-07T15:19:04;10.55;;;7.93;;
13580;SDS011;6861;46.170;7.222;2022-12-07T15:21:32;14.53;;;8.40;;
13580;SDS011;6861;46.170;7.222;2022-12-07T15:23:59;10.40;;;7.87;;
13580;SDS011;6861;46.170;7.222;2022-12-07T15:26:27;11.13;;;7.88;;
13580;SDS011;6861;46.170;7.222;2022-12-07T15:28:54;11.80;;;8.13;;
13580;SDS011;6861;46.170;7.222;2022-12-07T15:31:21;11.55;;;7.60;;
13580;SDS011;6861;46.170;7.222;2022-12-07T15:33:48;11.20;;;8.13;;
13580;SDS011;6861;46.170;7.222;2022-12-07T15:36:19;11.48;;;8.45;;